Current | Forecast
Updated: 9:00 PM JST on June 29, 2017
Observed at Niigata Airport, Japan
Temperature 72°F
Humidity 83%
Dew Point 66°F
Wind NNE at 2 mph
Pressure 29.92 in (Steady)
Conditions Clear
Visibility -
UV N/A
Clouds
Yesterday's Maximum 73°F
Yesterday's Minimum 66°F approx.
Yesterday's Cooling Degree Days 5 approx.
Sunrise4:25 AM JST
Sunset7:13 PM JST
Moon Rise9:54 AM JST
Moon Set11:01 PM JST
Moon PhaseMoon Phase
Waxing Crescent
Raw METARMETAR RJSN 291200Z 03002KT CAVOK 22/19 Q1013


Monday
. High: 75° F.
Tuesday
. High: 71° F.
Wednesday
. High: 62° F.
Thursday
. High: 66° F.
Friday
. High: 71° F.
Saturday
. High: 62° F.
Sunday
. High: 64° F.
Monday
. High: 60° F.

Units: English | Metric

Find the Weather for any City, State or Zipcode, or Country:

U.S. State List | Severe Weather | Tropical Storms | Ski Conditions
United States | Canada | Central America | South America | Asia | Europe | Australia | Africa | Islands

Weather Underground

© Copyright 2017
The Weather Company, LLC